• Join FlightAware (Why Join?)
  • Login
  • US Flag 
06:41PM EDT


 

Airport Tracker/Info


-or-


 

Live Flight TrackerFlight Track Log ✈ UAL395 ✈ 30-Jun-2013 ✈ KORD - KSAN

Flight Track Log - Related Links

Times and Time Zones

All times are in EDT time to prevent confusion due to time zone crossing. See the UAL395 flight status page for this flight to view local times or setup timezone preferences in your user account.

Time Position Orientation Groundspeed Altitude Reporting Facility
EDT Latitude Longitude Course Direction KTS MPH feet Rate Location/Type
07:30PM 42.0000 -87.9500 270° West 158 182 1,800  Level Chicago TRACON
07:31PM 42.0333 -87.9833 323° Northwest 200 230 3,000 1,500 Climbing Chicago TRACON
07:32PM 42.1000 -88.0167 340° North 258 297 4,900 1,560 Climbing Chicago TRACON
07:33PM 42.1331 -88.0447 328° Northwest 257 296 5,500 2,160 Climbing Chicago Center
07:34PM 41.9667 -88.7087 270° West  Level FlightAware Approximate
07:34PM 42.1678 -88.1325 298° West 300 345 8,400  Level Chicago Center
07:35PM 41.9668 -88.8704 270° West  Level FlightAware Approximate
07:35PM 42.1578 -88.2428 263° West 302 348 10,300  Level Chicago Center
07:36PM 42.1367 -88.3703 257° West 347 399 12,300 1,740 Climbing Chicago Center
07:37PM 42.1122 -88.5094 257° West 377 434 13,900 2,580 Climbing Chicago Center
07:38PM 42.0806 -88.7006 257° West 432 497 17,700 2,940 Climbing Chicago Center
07:39PM 42.0544 -88.8633 258° West 446 513 20,000 2,220 Climbing Chicago Center
07:40PM 42.0464 -89.0342 266° West 465 535 22,300 1,980 Climbing Chicago Center
07:41PM 42.0425 -89.2122 268° West 475 547 24,100 1,260 Climbing Chicago Center
07:42PM 42.0386 -89.3939 268° West 487 560 25,000 1,020 Climbing Chicago Center
07:43PM 42.0339 -89.6117 268° West 490 564 26,300 1,140 Climbing Chicago Center
07:44PM 42.0439 -89.7897 274° West 483 556 27,400 960 Climbing Chicago Center
07:45PM 42.0572 -89.9681 276° West 483 556 28,300 900 Climbing Chicago Center
07:46PM 42.0689 -90.1475 275° West 486 559 29,300 960 Climbing Chicago Center
07:47PM 42.0806 -90.3231 275° West 478 550 30,400 960 Climbing Chicago Center
07:48PM 42.0947 -90.5308 275° West 469 540 31,400 780 Climbing Chicago Center
07:49PM 42.1064 -90.7067 275° West 473 544 32,100 600 Climbing Chicago Center
07:50PM 42.1186 -90.8817 275° West 474 545 32,700 540 Climbing Chicago Center
07:51PM 42.1294 -91.0569 275° West 473 544 33,300 480 Climbing Chicago Center
07:52PM 42.1403 -91.2336 275° West 476 548 33,800 300 Climbing Chicago Center
07:53PM 42.1522 -91.4097 275° West 473 544 34,000 60 Climbing Chicago Center
07:54PM 42.1678 -91.6186 276° West 470 541 34,000  Level Chicago Center
07:55PM 42.1800 -91.7944 275° West 471 542 34,000  Level Chicago Center
07:56PM 42.1931 -91.9678 276° West 468 539 34,000  Level Chicago Center
07:57PM 42.2053 -92.1431 275° West 469 540 34,000  Level Chicago Center
07:58PM 42.2169 -92.3178 275° West 470 541 34,000  Level Chicago Center
07:59PM 42.2289 -92.4919 275° West 469 540 34,000  Level Chicago Center
08:00PM 42.2428 -92.7011 275° West 469 540 34,000  Level Chicago Center
08:03PM 42.2650 -93.0522 275° West 475 547 34,000  Level Chicago Center
08:04PM 42.2783 -93.2622 275° West 475 547 34,000  Level Minneapolis Center
08:05PM 42.2861 -93.4375 273° West 474 545 34,000  Level Minneapolis Center
08:06PM 42.2483 -93.6042 253° West 468 539 34,000  Level Minneapolis Center
08:07PM 42.1994 -93.8006 251° West 467 537 34,000  Level Minneapolis Center
08:08PM 42.1658 -93.9425 252° West 465 535 34,000  Level Minneapolis Center
08:09PM 42.1175 -94.1411 252° West 466 536 34,000  Level Minneapolis Center
08:10PM 42.0739 -94.3069 251° West 471 542 34,000  Level Minneapolis Center
08:11PM 42.0317 -94.4747 251° West 476 548 34,000  Level Minneapolis Center
08:12PM 41.9883 -94.6444 251° West 480 552 34,000  Level Minneapolis Center
08:13PM 41.9453 -94.8114 251° West 475 547 34,000  Level Minneapolis Center
08:14PM 41.9031 -94.9781 251° West 473 544 34,000  Level Minneapolis Center
08:15PM 41.8597 -95.1431 251° West 471 542 34,000  Level Minneapolis Center
08:16PM 41.8067 -95.3442 251° West 477 549 34,000  Level Minneapolis Center
08:17PM 41.7622 -95.5094 250° West 476 548 34,000  Level Minneapolis Center
08:18PM 41.7189 -95.6750 251° West 474 545 34,000  Level Minneapolis Center
08:19PM 41.6750 -95.8372 250° West 469 540 34,000  Level Minneapolis Center
08:20PM 41.6294 -96.0111 251° West 470 541 34,000  Level Minneapolis Center
08:21PM 41.5861 -96.1742 250° West 467 537 34,000  Level Minneapolis Center
08:22PM 41.5417 -96.3378 250° West 468 539 34,000  Level Minneapolis Center
08:23PM 41.4903 -96.5150 249° West 468 539 34,000  Level Minneapolis Center
08:24PM 41.4450 -96.6764 250° West 469 540 34,000  Level Minneapolis Center
08:25PM 41.4003 -96.8375 250° West 467 537 34,000  Level Minneapolis Center
08:26PM 41.3533 -97.0000 249° West 469 540 34,000  Level Minneapolis Center
08:27PM 41.3089 -97.1622 250° West 469 540 34,000  Level Minneapolis Center
08:28PM 41.2622 -97.3225 249° West 466 536 34,000  Level Minneapolis Center
08:29PM 41.2106 -97.5022 249° West 465 535 34,000  Level Minneapolis Center
08:30PM 41.1636 -97.6619 249° West 464 534 34,000  Level Minneapolis Center
08:32PM 41.1175 -97.8228 249° West 464 534 34,000  Level Minneapolis Center
08:33PM 41.0614 -98.0161 249° West 467 537 34,000  Level Minneapolis Center
08:34PM 41.0139 -98.1767 249° West 467 537 34,000  Level Minneapolis Center
08:35PM 40.9661 -98.3375 249° West 467 537 34,000  Level Minneapolis Center
08:36PM 40.9164 -98.5050 249° West 468 539 34,000  Level Minneapolis Center
08:37PM 40.8675 -98.6656 248° West 470 541 34,000  Level Minneapolis Center
08:38PM 40.8194 -98.8267 249° West 472 543 34,000  Level Minneapolis Center
08:39PM 40.7625 -99.0178 249° West 469 540 34,000  Level Minneapolis Center
08:40PM 40.7128 -99.1778 248° West 467 537 34,000  Level Minneapolis Center
08:40PM 40.6839 -99.2719 248° West 465 535 34,000  Level Denver Center
08:41PM 40.6358 -99.4308 248° West 465 535 34,000  Level Denver Center
08:43PM 40.5858 -99.5889 247° West 466 536 34,000  Level Denver Center
08:44PM 40.5375 -99.7481 248° West 468 539 34,000  Level Denver Center
08:45PM 40.4872 -99.9067 247° West 466 536 34,000  Level Denver Center
08:46PM 40.4319 -100.0822 248° West 465 535 34,000  Level Denver Center
08:47PM 40.3844 -100.2319 247° West 463 533 34,000  Level Denver Center
08:48PM 40.3269 -100.4064 247° West 465 535 34,000  Level Denver Center
08:49PM 40.2794 -100.5558 247° West 463 533 34,000  Level Denver Center
08:50PM 40.2239 -100.7300 247° West 462 532 34,000  Level Denver Center
08:51PM 40.1753 -100.8792 247° West 463 533 34,000  Level Denver Center
08:52PM 40.1267 -101.0292 247° West 465 535 34,000  Level Denver Center
08:53PM 40.0708 -101.2028 247° West 464 534 34,000  Level Denver Center
08:54PM 40.0211 -101.3500 246° West 463 533 34,000  Level Denver Center
08:55PM 39.9644 -101.5211 247° West 458 527 34,000  Level Denver Center
08:56PM 39.9144 -101.6689 246° West 463 533 34,000  Level Denver Center
08:57PM 39.8575 -101.8408 247° West 465 535 34,000  Level Denver Center
08:58PM 39.8075 -101.9878 246° West 465 535 34,000  Level Denver Center
08:59PM 39.7492 -102.1586 246° West 463 533 34,000  Level Denver Center
09:00PM 39.6992 -102.3039 246° West 460 529 34,000  Level Denver Center
09:01PM 39.6506 -102.4475 246° West 455 524 34,000  Level Denver Center
09:02PM 39.5939 -102.6086 246° West 450 518 34,000  Level Denver Center
09:03PM 39.5425 -102.7547 246° West 446 513 34,000  Level Denver Center
09:04PM 39.4931 -102.9000 246° West 441 507 34,000  Level Denver Center
09:05PM 39.4419 -103.0450 246° West 443 510 34,000  Level Denver Center
09:06PM 39.4019 -103.1928 251° West 437 503 34,000  Level Denver Center
09:07PM 39.3550 -103.3725 251° West 438 504 34,000  Level Denver Center
09:08PM 39.3153 -103.5200 251° West 436 502 34,100 300 Climbing Denver Center
09:09PM 39.2850 -103.6722 256° West 438 504 34,700 660 Climbing Denver Center
09:11PM 39.2525 -103.8211 254° West 431 496 35,600 540 Climbing Denver Center
09:12PM 39.2136 -103.9997 254° West 431 496 36,000 180 Climbing Denver Center
09:13PM 39.1825 -104.1508 255° West 436 502 36,000  Level Denver Center
09:14PM 39.1528 -104.2997 256° West 429 494 36,000  Level Denver Center
09:15PM 39.1117 -104.4794 254° West 434 499 36,000  Level Denver Center
09:16PM 39.0761 -104.6283 253° West 433 498 36,000  Level Denver Center
09:17PM 39.0258 -104.7733 246° West 440 506 36,000  Level Denver Center
09:18PM 38.9772 -104.9172 247° West 438 504 36,000 180 Level Denver Center
09:19PM 38.9281 -105.0606 246° West 438 504 36,400 600 Climbing Denver Center
09:20PM 38.8808 -105.2039 247° West 436 502 37,300 660 Climbing Denver Center
09:21PM 38.8339 -105.3436 247° West 430 495 37,800 240 Climbing Denver Center
09:22PM 38.7856 -105.4839 246° West 428 493 37,900 60 Climbing Denver Center
09:23PM 38.7178 -105.6483 242° Southwest 435 501 38,000  Climbing Denver Center
09:24PM 38.6600 -105.7856 242° Southwest 437 503 38,000  Level Denver Center
09:25PM 38.5883 -105.9528 241° Southwest 435 501 38,000  Level Denver Center
09:26PM 38.5322 -106.0842 241° Southwest 439 505 38,000  Level Denver Center
09:27PM 38.4736 -106.2203 241° Southwest 439 505 38,000  Level Denver Center
09:28PM 38.4133 -106.3583 241° Southwest 441 507 38,000  Level Denver Center
09:29PM 38.3531 -106.4964 241° Southwest 443 510 38,000  Level Denver Center
09:30PM 38.2842 -106.6569 241° Southwest 447 514 38,000  Level Denver Center
09:32PM 38.2261 -106.7900 241° Southwest 450 518 38,000  Level Denver Center
09:33PM 38.1464 -106.9681 240° Southwest 450 518 38,000  Level Denver Center
09:34PM 38.0856 -107.1072 241° Southwest 449 517 38,000  Level Denver Center
09:35PM 38.0269 -107.2408 241° Southwest 450 518 38,000  Level Denver Center
09:36PM 37.9581 -107.3958 241° Southwest 453 521 38,000  Level Denver Center
09:37PM 37.8986 -107.5294 241° Southwest 453 521 38,000  Level Denver Center
09:38PM 37.8281 -107.6831 240° Southwest 453 521 38,000  Level Denver Center
09:39PM 37.7672 -107.8186 240° Southwest 459 528 38,000  Level Denver Center
09:40PM 37.6969 -107.9761 241° Southwest 461 531 38,000  Level Denver Center
09:41PM 37.6358 -108.1072 240° Southwest 456 525 38,000  Level Denver Center
09:42PM 37.5639 -108.2672 240° Southwest 464 534 38,000  Level Denver Center
09:43PM 37.5017 -108.3994 239° Southwest 461 531 38,000  Level Denver Center
09:44PM 37.4511 -108.5128 241° Southwest 463 533 38,000  Level Denver Center
09:45PM 37.3678 -108.6908 240° Southwest 465 535 38,000  Level Denver Center
09:46PM 37.2836 -108.8706 240° Southwest 468 539 38,000  Level Denver Center
09:47PM 37.2203 -109.0056 240° Southwest 472 543 38,000  Level Denver Center
09:48PM 37.1458 -109.1628 239° Southwest 471 542 38,000  Level Denver Center
09:49PM 37.0858 -109.2992 241° Southwest 468 539 38,000  Level Denver Center
09:50PM 37.0189 -109.4603 243° Southwest 471 542 38,000  Level Denver Center
09:51PM 36.9611 -109.6003 243° Southwest 471 542 38,000  Level Denver Center
09:52PM 36.9214 -109.7397 250° West 456 525 38,000  Level Denver Center
09:53PM 36.9042 -109.9150 263° West 456 525 38,000  Level Denver Center
09:54PM 36.8586 -110.0550 248° West 463 533 38,000  Level Denver Center
09:55PM 36.7875 -110.2136 241° Southwest 470 541 38,000  Level Denver Center
09:57PM 36.7269 -110.3525 241° Southwest 462 532 38,000  Level Denver Center
09:58PM 36.6606 -110.4950 240° Southwest 469 540 38,000  Level Denver Center
09:59PM 36.5975 -110.6372 241° Southwest 470 541 38,000  Level Denver Center
10:00PM 36.5186 -110.8103 240° Southwest 475 547 38,000  Level Denver Center
10:01PM 36.4414 -110.9811 241° Southwest 474 545 38,000  Level Denver Center
10:02PM 36.3478 -111.1819 240° Southwest 478 550 38,000  Level Denver Center
10:03PM 36.2833 -111.3244 241° Southwest 476 548 38,000  Level Denver Center
10:04PM 36.2181 -111.4647 240° Southwest 472 543 38,000  Level Denver Center
10:05PM 36.1544 -111.6033 240° Southwest 467 537 38,000  Level Denver Center
10:06PM 36.0917 -111.7381 240° Southwest 459 528 38,000  Level Los Angeles Center
10:07PM 36.0281 -111.8764 240° Southwest 459 528 38,000  Level Los Angeles Center
10:08PM 35.9625 -112.0156 240° Southwest 461 531 38,000  Level Los Angeles Center
10:09PM 35.8978 -112.1508 239° Southwest 461 531 38,000  Level Los Angeles Center
10:10PM 35.8342 -112.2869 240° Southwest 462 532 38,000  Level Los Angeles Center
10:12PM 35.7578 -112.4478 240° Southwest 459 528 38,000  Level Los Angeles Center
10:13PM 35.6953 -112.5806 240° Southwest 454 522 38,000  Level Los Angeles Center
10:14PM 35.6306 -112.7158 240° Southwest 451 519 38,000  Level Los Angeles Center
10:15PM 35.5800 -112.8233 240° Southwest 453 521 38,000  Level Los Angeles Center
10:16PM 35.4981 -112.9928 239° Southwest 459 528 38,000  Level Los Angeles Center
10:17PM 35.4325 -113.1267 239° Southwest 457 526 38,000  Level Los Angeles Center
10:18PM 35.3681 -113.2575 239° Southwest 447 514 38,000  Level Los Angeles Center
10:19PM 35.3044 -113.3917 240° Southwest 453 521 38,000  Level Los Angeles Center
10:20PM 35.2400 -113.5219 239° Southwest 452 520 38,000  Level Los Angeles Center
10:21PM 35.1625 -113.6806 239° Southwest 453 521 38,000  Level Los Angeles Center
10:22PM 35.0972 -113.8142 239° Southwest 461 531 38,000  Level Los Angeles Center
10:23PM 35.0136 -113.9786 238° Southwest 461 531 38,000 -360 Level Los Angeles Center
10:24PM 34.9461 -114.1133 239° Southwest 463 533 37,300 -960 Descending Los Angeles Center
10:25PM 34.8794 -114.2467 239° Southwest 460 529 36,100 -1,440 Descending Los Angeles Center
10:26PM 34.8125 -114.3817 239° Southwest 463 533 34,400 -1,020 Descending Los Angeles Center
10:27PM 34.7331 -114.5111 233° Southwest 474 545 34,000 -300 Descending Los Angeles Center
10:28PM 34.6281 -114.6294 223° Southwest 468 539 33,900 -1,200 Descending Los Angeles Center
10:29PM 34.5317 -114.7400 223° Southwest 474 545 31,600 -2,040 Descending Los Angeles Center
10:30PM 34.4322 -114.8522 223° Southwest 486 559 29,800 -1,440 Descending Los Angeles Center
10:31PM 34.3336 -114.9647 223° Southwest 489 563 28,700 -960 Descending Los Angeles Center
10:32PM 34.2144 -115.0989 223° Southwest 489 563 27,900 -420 Descending Los Angeles Center
10:33PM 34.1136 -115.2117 223° Southwest 494 568 27,900  Level Los Angeles Center
10:35PM 34.0131 -115.3256 223° Southwest 496 571 27,900  Level Los Angeles Center
10:36PM 33.8931 -115.4611 223° Southwest 494 568 27,900  Level Los Angeles Center
10:37PM 33.7914 -115.5708 222° Southwest 493 567 27,900 -540 Level Los Angeles Center
10:38PM 33.6928 -115.6822 223° Southwest 489 563 26,900 -1,380 Descending Los Angeles Center
10:39PM 33.5964 -115.7983 225° Southwest 492 566 25,100 -1,800 Descending Los Angeles Center
10:40PM 33.4989 -115.9603 234° Southwest 497 572 23,300 -2,100 Descending Los Angeles Center
10:41PM 33.3922 -116.0622 219° Southwest 489 563 20,900 -2,520 Descending Los Angeles Center
10:42PM 33.2925 -116.1617 220° Southwest 471 542 18,200 -2,760 Descending Los Angeles Center
10:43PM 33.1978 -116.2547 219° Southwest 447 514 15,300 -2,640 Descending Los Angeles Center
10:44PM 33.1061 -116.3456 220° Southwest 433 498 12,900 -1,620 Descending Los Angeles Center
10:45PM 33.0208 -116.4275 219° Southwest 407 468 12,000 -960 Descending Los Angeles Center
10:46PM 32.9272 -116.4906 209° Southwest 335 386 10,800 -1,320 Descending Los Angeles Center
10:47PM 32.8719 -116.5878 236° Southwest 312 359 9,100 -1,620 Descending Los Angeles Center
10:48PM 32.8253 -116.6689 236° Southwest 301 346 7,600 -1,080 Descending Los Angeles Center
10:49PM 32.7800 -116.7481 236° Southwest 296 341 6,900 -900 Descending Los Angeles Center
10:50PM 32.7408 -116.8144 235° Southwest 261 300 5,800 -900 Descending Los Angeles Center
10:51PM 32.6833 -116.9000 231° Southwest 220 253 5,000 -1,020 Descending Southern California TRACON
10:52PM 32.6833 -116.9667 270° West 215 247 3,700 -1,020 Descending Southern California TRACON
10:53PM 32.7000 -117.0167 292° West 185 213 3,000 -720 Descending Southern California TRACON